Nur fliegen ist schöner ....

Willkommen beim Flugservice Bautzen GmbH

Wir sind eine nach europäischen Richtlinien zugelassene Flugschule und lizenziertes Luftfahrtunternehmen. Bei uns können sie nicht nur Rundflüge über die Oberlausitz oder Sachsen buchen, sondern in unserer Flugschule selber das Fliegen erlernen. Erfahrene Fluglehrer stehen Ihnen dabei zur Seite.

Wir bieten Ihnen außerdem spezielle Flüge zur Vermessung oder Fotoflüge für Luftbildaufnahmen an. In Zusammenarbeit mit dem Fallschirmsportclub Dresden und dem Cottbuser Fallschirmsportclub setzen wir am Flugplatz Bautzen und Neuhausen Fallschirmspringer ab.
Schauen Sie sich in Ruhe bei uns um und wenn Sie Fragen haben oder weitere Informationen benötigen, scheuen Sie sich nicht Kontakt mit uns aufzunehmen.

Gutscheine für Rundflüge und Tandemsprünge können Sie ganz leicht auch online in unserem Shop erwerben.

Terminkalender

Letzter Monat September 2019 Nächster Monat
Mo Di Mi Do Fr Sa So
week 35 1
week 36 2 3 4 5 6 7 8
week 37 9 10 11 12 13 14 15
week 38 16 17 18 19 20 21 22
week 39 23 24 25 26 27 28 29
week 40 30

Flugwetterinfo

[Quelle: ADDS]
METAR
EDDC 160620Z VRB02KT 9999 SCT013 BKN039 14/11 Q1020 TEMPO BKN009 =
EDDC 160500Z 1606/1706 29005KT 9999 SCT012 BKN035 TEMPO 1606/1614 4500 -RA BKN008 PROB30 TEMPO 1614/1619 2500 -RADZ BKN006 PROB40 TEMPO 1702/1706 3000 -DZ BKN005
TAF
EDDC 160500Z 1606/1706 29005KT 9999 SCT012 BKN035 TEMPO 1606/1614 4500 -RA BKN008 PROB30 TEMPO 1614/1619 2500 -RADZ BKN006 PROB40 TEMPO 1702/1706 3000 -DZ BKN005 =
SR / SS: 04:38 / 17:15 UTC (EDAB Flugplatz Bautzen 2019-09-16)

Öffnungszeiten

des Flugplatzes Bautzen erfahren Sie hier:

flugplatz bautzen logo
Flugservice Bautzen GmbH, Kornmarkt 34, 02625 Bautzen  Telefon: +49 (3591) 211105, Telefax: +49 (3591) 274512, E-Mail:  flugservice(at)fsbautzen.de